Twin Springs, Nevada Weather observations

Data are for observation ending at time listed.
 Day   Time    Ave.   Ave.  Ave.  Vector   Max.   Stn.    Total    Solar   Ave.  
  of    of     Air    Rel.  Wind   Wind    Wind   Baro.  Precip.   Rad.    Soil  
Year   Day     Temp.  Hum.  Speed  Dir.    Gust   Pres.                    Temp. 
2015   (PST)    F      %     mph   deg.    mph     mb.     in.     W/m2     F   
------------------------------------------------------------------------------
  27    7:00   40.3    92    3.8   334      7.1    848     0.01       0    40.8
  27    8:00   41.3    89    5.4   117     13.7    849     0.00      23    40.7
  27    9:00   43.4    84   10.1   137     18.5    849     0.00      85    40.7
  27   10:00   45.7    80   11.2   131     17.9    849     0.00     285    40.8
  27   11:00   49.1    70   13.8   131     23.2    849     0.00     510    41.3
  27   12:00   49.7    67   14.1   129     22.6    849     0.00     461    42.4
  27   13:00   46.7    74   11.3   156     25.2    848     0.02     266    43.7
  27   14:00   51.3    61    8.5   161     16.7    848     0.00     607    44.2
  27   15:00   52.1    54    9.3   173     19.7    848     0.00     359    45.5
  27   16:00   50.4    56    8.5   190     17.8    848     0.00     152    46.4
  27   17:00   49.6    55    7.1   202     15.3    848     0.00      63    46.3
  27   18:00   46.0    64    7.5   187     15.6    848     0.00       1    46.0
  27   19:00   44.4    70    3.5   154      6.9    849     0.00       0    45.3
  27   20:00   43.8    73    5.9   277     15.8    849     0.00       0    44.7
  27   21:00   43.1    76    4.7   229     11.4    850     0.00       0    44.2
  27   22:00   41.9    79    2.2   125      5.1    850     0.00       0    43.8
  27   23:00   39.4    83    2.8   314      5.2    850     0.00       0    43.4
  28    0:00   37.9    84    2.5   308      4.5    850     0.00       0    42.8
  28    1:00   36.4    85    3.3   360      7.5    850     0.00       0    42.1
  28    2:00   33.2    90    5.4   338      9.1    850     0.00       0    41.3
  28    3:00   31.3    94    4.8   331      7.3    850     0.00       0    40.6
  28    4:00   30.1    96    4.6   346      7.2    851     0.00       0    40.0
  28    5:00   28.9    96    3.7   317      6.3    851     0.00       0    39.3
  28    6:00   27.9    96    5.3   316      9.6    851     0.00       0    38.7

Return to Twin Springs, Nevada graphs page.


Western Regional Climate Center,wrcc@dri.edu